createdAt,value
2023-04-08T00:00:55.049Z,99.90
2023-04-08T00:03:23.027Z,99.90
2023-04-08T00:05:51.079Z,99.90
2023-04-08T00:08:18.981Z,99.90
2023-04-08T00:10:48.059Z,99.90
2023-04-08T00:13:15.882Z,99.90
2023-04-08T00:15:43.594Z,99.90
2023-04-08T00:18:11.411Z,99.90
2023-04-08T00:20:39.234Z,99.90
2023-04-08T00:23:06.914Z,99.90
2023-04-08T00:25:34.590Z,99.90
2023-04-08T00:28:03.958Z,99.90
2023-04-08T00:30:31.768Z,99.90
2023-04-08T00:32:59.555Z,99.90
2023-04-08T00:35:27.476Z,99.90
2023-04-08T00:37:55.263Z,99.90
2023-04-08T00:40:23.140Z,99.90
2023-04-08T00:42:51.259Z,99.90
2023-04-08T00:45:20.405Z,99.90
2023-04-08T00:47:52.575Z,99.90
2023-04-08T00:50:21.126Z,99.90
2023-04-08T00:52:48.849Z,99.90
2023-04-08T00:55:16.718Z,99.90
2023-04-08T00:57:44.758Z,99.90
2023-04-08T01:00:14.009Z,99.90
2023-04-08T01:02:49.025Z,99.90
2023-04-08T01:05:24.842Z,99.90
2023-04-08T01:07:52.751Z,99.90
2023-04-08T01:10:23.892Z,99.90
2023-04-08T01:12:56.477Z,99.90
2023-04-08T01:15:26.846Z,99.90
2023-04-08T01:17:57.471Z,99.90
2023-04-08T01:20:26.093Z,99.90
2023-04-08T01:23:04.740Z,99.90
2023-04-08T01:25:34.203Z,99.90
2023-04-08T01:28:06.552Z,99.90
2023-04-08T01:30:36.461Z,99.90
2023-04-08T01:33:06.542Z,99.90
2023-04-08T01:35:34.921Z,99.90
2023-04-08T01:38:03.929Z,99.90
2023-04-08T01:40:32.854Z,99.90
2023-04-08T01:43:03.996Z,99.90
2023-04-08T01:45:32.218Z,99.90
2023-04-08T01:48:02.281Z,99.90
2023-04-08T01:50:30.712Z,99.90
2023-04-08T01:53:01.123Z,99.90
2023-04-08T01:55:29.732Z,99.90
2023-04-08T01:58:00.810Z,99.90
2023-04-08T02:00:31.914Z,99.90
2023-04-08T02:03:01.849Z,99.90
2023-04-08T02:05:30.123Z,99.90
2023-04-08T02:07:57.888Z,99.90
2023-04-08T02:10:25.785Z,99.90
2023-04-08T02:12:53.602Z,99.90
2023-04-08T02:15:21.889Z,99.90
2023-04-08T02:17:53.102Z,99.90
2023-04-08T02:20:25.282Z,99.90
2023-04-08T02:23:00.893Z,99.90
2023-04-08T02:25:31.554Z,99.90
2023-04-08T02:28:03.940Z,99.90
2023-04-08T02:30:33.596Z,99.90
2023-04-08T02:33:05.607Z,99.90
2023-04-08T02:35:34.288Z,99.90
2023-04-08T02:38:02.153Z,99.90
2023-04-08T02:40:31.565Z,99.90
2023-04-08T02:43:00.576Z,99.90
2023-04-08T02:45:32.226Z,99.90
2023-04-08T02:48:01.895Z,99.90
2023-04-08T02:50:29.864Z,99.90
2023-04-08T02:52:57.640Z,99.90
2023-04-08T02:55:25.352Z,99.90
2023-04-08T02:57:53.069Z,99.90
2023-04-08T03:00:20.936Z,99.90
2023-04-08T03:02:48.943Z,99.90
2023-04-08T03:05:18.234Z,99.90
2023-04-08T03:07:46.047Z,99.90
2023-04-08T03:10:13.853Z,99.90
2023-04-08T03:12:41.732Z,99.90
2023-04-08T03:15:09.912Z,99.90
2023-04-08T03:17:37.884Z,99.90
2023-04-08T03:20:06.949Z,99.90
2023-04-08T03:22:37.239Z,99.90
2023-04-08T03:25:05.432Z,99.90
2023-04-08T03:27:33.182Z,99.90
2023-04-08T03:30:01.041Z,99.90
2023-04-08T03:32:29.144Z,99.90
2023-04-08T03:34:57.049Z,99.90
2023-04-08T03:37:24.884Z,99.90
2023-04-08T03:39:55.554Z,99.90
2023-04-08T03:42:23.325Z,99.90
2023-04-08T03:44:51.177Z,99.90
2023-04-08T03:47:18.918Z,99.90
2023-04-08T03:49:46.751Z,99.90
2023-04-08T03:52:14.512Z,99.90
2023-04-08T03:54:42.254Z,99.90
2023-04-08T03:57:11.953Z,99.90
2023-04-08T03:59:41.123Z,99.90
2023-04-08T04:02:08.955Z,99.90
2023-04-08T04:04:37.171Z,99.90
2023-04-08T04:07:04.910Z,99.90
2023-04-08T04:09:32.649Z,99.90
2023-04-08T04:12:00.516Z,99.90
2023-04-08T04:14:29.531Z,99.90
2023-04-08T04:16:57.259Z,99.90
2023-04-08T04:19:25.064Z,99.90
2023-04-08T04:21:52.807Z,99.90
2023-04-08T04:24:20.677Z,99.90
2023-04-08T04:26:48.384Z,99.90
2023-04-08T04:29:16.117Z,99.90
2023-04-08T04:31:47.137Z,99.90
2023-04-08T04:34:14.922Z,99.90
2023-04-08T04:36:42.617Z,99.90
2023-04-08T04:39:10.596Z,99.90
2023-04-08T04:41:40.644Z,99.90
2023-04-08T04:44:08.358Z,99.90
2023-04-08T04:46:36.401Z,99.90
2023-04-08T04:49:05.491Z,99.90
2023-04-08T04:51:33.636Z,99.90
2023-04-08T04:54:01.362Z,99.90
2023-04-08T04:56:29.082Z,99.90
2023-04-08T04:58:56.805Z,99.90
2023-04-08T05:01:24.654Z,99.90
2023-04-08T05:03:52.460Z,99.90
2023-04-08T05:06:21.638Z,99.90
2023-04-08T05:08:49.644Z,99.90
2023-04-08T05:11:18.508Z,99.90
2023-04-08T05:13:46.772Z,99.90
2023-04-08T05:16:15.182Z,99.90
2023-04-08T05:18:43.056Z,99.90
2023-04-08T05:21:10.925Z,99.90
2023-04-08T05:23:39.994Z,99.90
2023-04-08T05:26:08.732Z,99.90
2023-04-08T05:28:36.716Z,99.90
2023-04-08T05:31:04.512Z,99.90
2023-04-08T05:33:32.284Z,99.90
2023-04-08T05:36:00.252Z,99.90
2023-04-08T05:38:28.004Z,99.90
2023-04-08T05:40:57.047Z,99.90
2023-04-08T05:43:24.781Z,99.90
2023-04-08T05:45:52.574Z,99.90
2023-04-08T05:48:20.322Z,99.90
2023-04-08T05:50:48.558Z,99.90
2023-04-08T05:53:16.301Z,99.90
2023-04-08T05:55:44.037Z,99.90
2023-04-08T05:58:13.176Z,99.90
2023-04-08T06:00:41.787Z,99.90
2023-04-08T06:03:10.048Z,99.90
2023-04-08T06:05:37.958Z,99.90
2023-04-08T06:08:06.160Z,99.90
2023-04-08T06:10:33.866Z,99.90
2023-04-08T06:13:01.620Z,99.90
2023-04-08T06:15:30.694Z,99.90
2023-04-08T06:17:58.553Z,99.90
2023-04-08T06:20:26.386Z,99.90
2023-04-08T06:22:54.186Z,99.90
2023-04-08T06:25:21.901Z,99.90
2023-04-08T06:27:49.766Z,99.90
2023-04-08T06:30:17.597Z,99.90
2023-04-08T06:32:48.182Z,99.90
2023-04-08T06:35:16.406Z,99.90
2023-04-08T06:37:44.141Z,99.90
2023-04-08T06:40:12.285Z,99.90
2023-04-08T06:42:42.301Z,99.90
2023-04-08T06:45:13.823Z,99.90
2023-04-08T06:47:41.657Z,99.90
2023-04-08T06:50:11.676Z,99.90
2023-04-08T06:52:39.725Z,99.90
2023-04-08T06:55:07.959Z,99.90
2023-04-08T06:57:35.713Z,99.90
2023-04-08T07:00:03.524Z,99.90
2023-04-08T07:02:33.004Z,99.90
2023-04-08T07:05:01.005Z,99.90
2023-04-08T07:07:30.156Z,99.90
2023-04-08T07:09:57.830Z,99.90
2023-04-08T07:12:25.647Z,99.90
2023-04-08T07:14:54.048Z,99.90
2023-04-08T07:17:21.959Z,99.90
2023-04-08T07:19:49.895Z,99.90
2023-04-08T07:22:18.487Z,99.90
2023-04-08T07:24:49.779Z,99.90
2023-04-08T07:27:17.701Z,99.90
2023-04-08T07:29:45.456Z,99.90
2023-04-08T07:32:13.201Z,99.90
2023-04-08T07:34:41.068Z,99.90
2023-04-08T07:37:08.831Z,99.90
2023-04-08T07:39:36.673Z,99.90
2023-04-08T07:42:06.055Z,99.90
2023-04-08T07:44:33.820Z,99.90
2023-04-08T07:47:01.557Z,99.90
2023-04-08T07:49:29.282Z,99.90
2023-04-08T07:51:57.474Z,99.90
2023-04-08T07:54:25.296Z,99.90
2023-04-08T07:56:53.053Z,99.90
2023-04-08T07:59:22.162Z,99.90
2023-04-08T08:01:49.951Z,99.90
2023-04-08T08:04:18.322Z,99.90
2023-04-08T08:06:46.291Z,99.90
2023-04-08T08:09:14.462Z,99.90
2023-04-08T08:11:42.275Z,99.90
2023-04-08T08:14:11.703Z,99.90
2023-04-08T08:16:41.764Z,99.90
2023-04-08T08:19:09.638Z,99.90
2023-04-08T08:21:39.332Z,99.90
2023-04-08T08:24:07.113Z,99.90
2023-04-08T08:26:36.677Z,99.90
2023-04-08T08:29:04.769Z,99.90
2023-04-08T08:31:32.599Z,99.90
2023-04-08T08:34:01.683Z,99.90
2023-04-08T08:36:29.757Z,99.90
2023-04-08T08:38:57.509Z,99.90
2023-04-08T08:41:25.859Z,99.90
2023-04-08T08:43:54.911Z,99.90
2023-04-08T08:46:22.672Z,99.90
2023-04-08T08:48:50.378Z,99.90
2023-04-08T08:51:19.930Z,99.90
2023-04-08T08:53:47.979Z,99.90
2023-04-08T08:56:18.776Z,99.90
2023-04-08T08:58:47.433Z,99.90
2023-04-08T09:01:33.263Z,99.90
2023-04-08T09:04:16.920Z,99.90
2023-04-08T09:06:49.883Z,99.90
2023-04-08T09:09:18.137Z,99.90
2023-04-08T09:11:47.658Z,99.90
2023-04-08T09:14:22.848Z,99.90
2023-04-08T09:16:51.646Z,99.90
2023-04-08T09:19:19.962Z,99.90
2023-04-08T09:22:06.392Z,99.90
2023-04-08T09:24:34.260Z,99.90
2023-04-08T09:27:01.926Z,99.90
2023-04-08T09:29:33.371Z,99.90
2023-04-08T09:32:03.090Z,99.90
2023-04-08T09:34:32.451Z,99.90
2023-04-08T09:37:01.573Z,99.90
2023-04-08T09:39:29.369Z,99.90
2023-04-08T09:42:01.822Z,99.90
2023-04-08T09:44:32.280Z,99.90
2023-04-08T09:47:07.826Z,99.90
2023-04-08T09:49:40.237Z,99.90
2023-04-08T09:52:12.691Z,99.90
2023-04-08T09:54:48.928Z,99.90
2023-04-08T09:57:23.021Z,99.90
2023-04-08T09:59:58.685Z,99.90
2023-04-08T10:02:32.181Z,99.90
2023-04-08T10:05:04.944Z,99.90
2023-04-08T10:07:36.176Z,99.90
2023-04-08T10:10:04.454Z,99.90
2023-04-08T10:12:32.591Z,99.90
2023-04-08T10:15:25.284Z,99.90
2023-04-08T10:17:53.525Z,99.90
2023-04-08T10:20:44.749Z,99.90
2023-04-08T10:23:14.691Z,99.90
2023-04-08T10:25:43.652Z,99.90
2023-04-08T10:28:25.902Z,99.90
2023-04-08T10:30:54.605Z,99.90
2023-04-08T10:33:25.392Z,99.90
2023-04-08T10:35:55.625Z,99.90
2023-04-08T10:38:24.784Z,99.90
2023-04-08T10:40:53.683Z,99.90
2023-04-08T10:43:22.136Z,99.90
2023-04-08T10:45:52.524Z,99.90
2023-04-08T10:48:22.465Z,99.90
2023-04-08T10:51:02.872Z,99.90
2023-04-08T10:53:33.498Z,99.90
2023-04-08T10:56:08.483Z,99.90
2023-04-08T10:58:37.065Z,99.90
2023-04-08T11:01:07.065Z,99.90
2023-04-08T11:03:36.047Z,99.90
2023-04-08T11:06:04.629Z,99.90
2023-04-08T11:08:34.594Z,99.90
2023-04-08T11:11:02.953Z,99.90
2023-04-08T11:13:31.122Z,99.90
2023-04-08T11:16:00.619Z,99.90
2023-04-08T11:18:28.834Z,99.90
2023-04-08T11:21:00.211Z,99.90
2023-04-08T11:23:28.572Z,99.90
2023-04-08T11:25:58.263Z,99.90
2023-04-08T11:28:27.184Z,99.90
2023-04-08T11:30:55.683Z,99.90
2023-04-08T11:33:26.213Z,99.90
2023-04-08T11:35:54.883Z,99.90
2023-04-08T11:38:24.663Z,99.90
2023-04-08T11:40:58.706Z,99.90
2023-04-08T11:43:27.388Z,96.50
2023-04-08T11:45:55.338Z,95.50
2023-04-08T11:48:23.817Z,95.30
2023-04-08T11:51:04.625Z,93.20
2023-04-08T11:53:32.619Z,91.80
2023-04-08T11:56:17.410Z,90.80
2023-04-08T11:58:45.227Z,87.90
2023-04-08T12:01:13.147Z,85.70
2023-04-08T12:03:41.362Z,84.90
2023-04-08T12:06:09.661Z,87.50
2023-04-08T12:08:37.369Z,88.70
2023-04-08T12:11:18.692Z,88.40
2023-04-08T12:13:47.181Z,88.10
2023-04-08T12:16:15.170Z,87.60
2023-04-08T12:18:42.928Z,87.40
2023-04-08T12:21:10.833Z,86.70
2023-04-08T12:23:38.579Z,84.80
2023-04-08T12:26:08.080Z,83.00
2023-04-08T12:28:36.401Z,80.10
2023-04-08T12:31:04.544Z,78.60
2023-04-08T12:33:32.595Z,79.70
2023-04-08T12:36:00.639Z,80.20
2023-04-08T12:38:28.573Z,81.40
2023-04-08T12:40:57.060Z,82.60
2023-04-08T12:43:26.276Z,83.30
2023-04-08T12:45:54.060Z,83.60
2023-04-08T12:48:21.808Z,84.90
2023-04-08T12:50:49.697Z,84.10
2023-04-08T12:53:17.480Z,83.50
2023-04-08T12:55:47.437Z,81.10
2023-04-08T12:58:17.514Z,81.00
2023-04-08T13:00:47.256Z,77.80
2023-04-08T13:03:17.442Z,75.80
2023-04-08T13:05:45.444Z,75.10
2023-04-08T13:08:13.315Z,75.50
2023-04-08T13:10:42.703Z,74.50
2023-04-08T13:13:10.649Z,74.90
2023-04-08T13:15:41.541Z,75.30
2023-04-08T13:18:10.931Z,74.90
2023-04-08T13:20:38.984Z,77.70
2023-04-08T13:23:06.832Z,79.50
2023-04-08T13:25:34.697Z,81.30
2023-04-08T13:28:02.404Z,83.50
2023-04-08T13:30:30.331Z,83.00
2023-04-08T13:32:58.108Z,85.90
2023-04-08T13:35:27.229Z,86.40
2023-04-08T13:37:54.938Z,86.70
2023-04-08T13:40:22.662Z,87.00
2023-04-08T13:42:50.667Z,85.60
2023-04-08T13:45:19.276Z,81.30
2023-04-08T13:47:47.157Z,78.80
2023-04-08T13:50:15.725Z,80.00
2023-04-08T13:52:44.801Z,79.10
2023-04-08T13:55:12.505Z,77.30
2023-04-08T13:57:40.229Z,78.90
2023-04-08T14:00:09.447Z,81.10
2023-04-08T14:02:37.292Z,81.30
2023-04-08T14:05:05.386Z,81.50
2023-04-08T14:07:33.153Z,81.00
2023-04-08T14:10:02.311Z,82.00
2023-04-08T14:12:31.708Z,81.80
2023-04-08T14:14:59.529Z,82.60
2023-04-08T14:17:27.351Z,80.40
2023-04-08T14:19:55.110Z,81.00
2023-04-08T14:22:22.848Z,77.70
2023-04-08T14:24:50.787Z,79.60
2023-04-08T14:27:19.884Z,80.60
2023-04-08T14:29:47.689Z,80.50
2023-04-08T14:32:15.402Z,81.10
2023-04-08T14:34:43.312Z,81.10
2023-04-08T14:37:12.225Z,80.90
2023-04-08T14:39:39.999Z,81.00
2023-04-08T14:42:07.770Z,80.60
2023-04-08T14:44:36.770Z,80.20
2023-04-08T14:47:04.618Z,80.30
2023-04-08T14:49:32.314Z,80.90
2023-04-08T14:52:00.429Z,80.90
2023-04-08T14:54:28.192Z,79.30
2023-04-08T14:56:58.773Z,78.60
2023-04-08T14:59:26.592Z,79.00
2023-04-08T15:01:55.935Z,79.40
2023-04-08T15:04:23.863Z,79.50
2023-04-08T15:06:53.774Z,78.00
2023-04-08T15:09:21.802Z,80.60
2023-04-08T15:11:49.621Z,69.50
2023-04-08T15:14:17.350Z,63.30
2023-04-08T15:16:45.153Z,64.30
2023-04-08T15:19:14.402Z,65.30
2023-04-08T15:21:42.118Z,65.40
2023-04-08T15:24:10.112Z,66.10
2023-04-08T15:26:37.900Z,66.20
2023-04-08T15:29:05.735Z,68.30
2023-04-08T15:31:34.888Z,68.70
2023-04-08T15:34:05.239Z,69.70
2023-04-08T15:36:36.412Z,70.80
2023-04-08T15:39:06.083Z,68.10
2023-04-08T15:41:33.904Z,69.30
2023-04-08T15:44:01.831Z,68.20
2023-04-08T15:46:29.667Z,71.60
2023-04-08T15:48:58.350Z,61.40
2023-04-08T15:51:27.797Z,56.90
2023-04-08T15:53:57.506Z,55.10
2023-04-08T15:56:27.012Z,54.20
2023-04-08T15:58:54.896Z,54.60
2023-04-08T16:01:22.956Z,56.40
2023-04-08T16:03:54.942Z,57.90
2023-04-08T16:06:23.188Z,59.20
2023-04-08T16:08:51.139Z,60.20
2023-04-08T16:11:21.872Z,59.80
2023-04-08T16:13:49.654Z,61.10
2023-04-08T16:16:22.526Z,61.80
2023-04-08T16:18:50.530Z,62.30
2023-04-08T16:21:18.656Z,62.00
2023-04-08T16:23:46.431Z,62.10
2023-04-08T16:26:14.159Z,63.50
2023-04-08T16:28:43.394Z,63.50
2023-04-08T16:31:11.396Z,64.60
2023-04-08T16:33:39.291Z,64.50
2023-04-08T16:36:07.512Z,66.40
2023-04-08T16:38:35.536Z,67.90
2023-04-08T16:41:09.983Z,64.80
2023-04-08T16:43:38.304Z,63.40
2023-04-08T16:46:16.053Z,63.90
2023-04-08T16:48:44.972Z,63.90
2023-04-08T16:51:12.890Z,67.80
2023-04-08T16:53:40.988Z,64.40
2023-04-08T16:56:15.050Z,58.90
2023-04-08T16:58:42.904Z,59.10
2023-04-08T17:01:11.760Z,60.80
2023-04-08T17:03:41.453Z,63.40
2023-04-08T17:06:10.120Z,65.20
2023-04-08T17:08:38.386Z,66.60
2023-04-08T17:11:07.927Z,64.70
2023-04-08T17:13:35.709Z,64.60
2023-04-08T17:16:03.689Z,62.90
2023-04-08T17:18:31.571Z,60.00
2023-04-08T17:21:00.760Z,59.30
2023-04-08T17:23:28.591Z,59.20
2023-04-08T17:25:57.020Z,61.70
2023-04-08T17:28:25.179Z,62.80
2023-04-08T17:30:53.149Z,63.50
2023-04-08T17:33:20.899Z,65.00
2023-04-08T17:35:48.665Z,66.10
2023-04-08T17:38:17.763Z,67.00
2023-04-08T17:40:46.413Z,67.40
2023-04-08T17:43:14.404Z,67.50
2023-04-08T17:45:42.405Z,67.30
2023-04-08T17:48:10.787Z,67.30
2023-04-08T17:50:38.664Z,68.70
2023-04-08T17:53:06.971Z,67.50
2023-04-08T17:55:36.126Z,68.20
2023-04-08T17:58:04.384Z,68.50
2023-04-08T18:00:32.262Z,69.10
2023-04-08T18:03:00.124Z,69.00
2023-04-08T18:05:29.038Z,68.80
2023-04-08T18:07:58.222Z,69.10
2023-04-08T18:10:25.951Z,69.70
2023-04-08T18:13:07.931Z,70.20
2023-04-08T18:15:39.685Z,70.00
2023-04-08T18:18:07.490Z,70.30
2023-04-08T18:20:36.644Z,70.60
2023-04-08T18:23:04.913Z,71.20
2023-04-08T18:25:34.427Z,71.70
2023-04-08T18:28:03.966Z,72.10
2023-04-08T18:30:31.919Z,73.00
2023-04-08T18:32:59.859Z,73.80
2023-04-08T18:35:27.647Z,74.50
2023-04-08T18:37:56.500Z,75.70
2023-04-08T18:40:24.933Z,76.40
2023-04-08T18:42:52.829Z,77.20
2023-04-08T18:45:22.077Z,78.80
2023-04-08T18:47:49.861Z,79.60
2023-04-08T18:50:18.230Z,80.50
2023-04-08T18:52:46.089Z,81.90
2023-04-08T18:55:13.958Z,81.60
2023-04-08T18:57:41.818Z,81.00
2023-04-08T19:00:10.636Z,80.10
2023-04-08T19:02:39.816Z,79.50
2023-04-08T19:05:08.712Z,79.40
2023-04-08T19:07:36.561Z,79.10
2023-04-08T19:10:04.660Z,79.40
2023-04-08T19:12:32.393Z,78.60
2023-04-08T19:15:00.484Z,78.40
2023-04-08T19:17:28.301Z,78.60
2023-04-08T19:19:57.825Z,79.10
2023-04-08T19:22:26.114Z,79.00
2023-04-08T19:24:55.172Z,80.00
2023-04-08T19:27:23.100Z,79.50
2023-04-08T19:29:51.065Z,80.00
2023-04-08T19:32:18.933Z,79.60
2023-04-08T19:34:46.802Z,79.70
2023-04-08T19:37:15.978Z,79.80
2023-04-08T19:39:43.731Z,79.40
2023-04-08T19:42:12.104Z,79.60
2023-04-08T19:44:40.470Z,80.10
2023-04-08T19:47:08.255Z,80.60
2023-04-08T19:49:36.142Z,79.80
2023-04-08T19:52:05.574Z,80.80
2023-04-08T19:54:34.669Z,80.90
2023-04-08T19:57:02.670Z,81.20
2023-04-08T19:59:30.498Z,80.90
2023-04-08T20:02:01.385Z,81.20
2023-04-08T20:04:31.378Z,81.60
2023-04-08T20:07:02.378Z,82.10
2023-04-08T20:09:30.767Z,82.60
2023-04-08T20:12:04.717Z,82.50
2023-04-08T20:14:33.181Z,82.20
2023-04-08T20:17:01.173Z,82.20
2023-04-08T20:19:29.556Z,82.90
2023-04-08T20:21:57.451Z,83.10
2023-04-08T20:24:25.416Z,83.10
2023-04-08T20:26:56.200Z,82.90
2023-04-08T20:29:26.927Z,83.20
2023-04-08T20:31:54.810Z,83.60
2023-04-08T20:34:22.641Z,83.90
2023-04-08T20:36:52.928Z,84.00
2023-04-08T20:39:31.502Z,83.60
2023-04-08T20:41:59.475Z,83.50
2023-04-08T20:44:29.278Z,83.10
2023-04-08T20:46:57.970Z,83.60
2023-04-08T20:49:25.880Z,83.70
2023-04-08T20:51:53.650Z,84.00
2023-04-08T20:54:21.652Z,84.60
2023-04-08T20:56:49.416Z,84.60
2023-04-08T20:59:18.823Z,84.10
2023-04-08T21:01:48.241Z,84.00
2023-04-08T21:04:16.904Z,84.50
2023-04-08T21:06:44.747Z,84.10
2023-04-08T21:09:14.873Z,83.70
2023-04-08T21:11:42.754Z,83.70
2023-04-08T21:14:12.156Z,84.00
2023-04-08T21:16:40.124Z,84.40
2023-04-08T21:19:09.539Z,84.70
2023-04-08T21:21:41.186Z,85.50
2023-04-08T21:24:10.498Z,86.30
2023-04-08T21:26:38.336Z,86.30
2023-04-08T21:29:06.057Z,86.60
2023-04-08T21:31:34.802Z,87.50
2023-04-08T21:34:05.725Z,88.30
2023-04-08T21:36:34.787Z,89.50
2023-04-08T21:39:07.693Z,89.60
2023-04-08T21:41:35.619Z,89.70
2023-04-08T21:44:03.746Z,89.50
2023-04-08T21:46:31.538Z,90.30
2023-04-08T21:48:59.269Z,90.70
2023-04-08T21:51:27.217Z,92.20
2023-04-08T21:53:56.309Z,92.90
2023-04-08T21:56:24.788Z,94.60
2023-04-08T21:58:52.806Z,95.70
2023-04-08T22:01:20.927Z,97.40
2023-04-08T22:03:48.808Z,98.40
2023-04-08T22:06:29.158Z,99.90
2023-04-08T22:09:01.035Z,99.90
2023-04-08T22:11:28.888Z,99.90
2023-04-08T22:13:56.651Z,99.90
2023-04-08T22:16:24.556Z,99.90
2023-04-08T22:18:54.930Z,99.90
2023-04-08T22:21:23.688Z,99.90
2023-04-08T22:23:51.441Z,99.90
2023-04-08T22:26:21.191Z,99.90
2023-04-08T22:28:48.921Z,99.90
2023-04-08T22:31:16.804Z,99.90
